sensor_id;sensor_type;location;lat;lon;timestamp;pressure;altitude;pressure_sealevel;temperature;humidity
53651;BME280;39552;45.776;15.892;2022-09-27T00:00:25;99153.09;;;18.37;100.00
53651;BME280;39552;45.776;15.892;2022-09-27T00:02:52;99155.81;;;18.37;100.00
53651;BME280;39552;45.776;15.892;2022-09-27T00:05:19;99153.63;;;18.49;100.00
53651;BME280;39552;45.776;15.892;2022-09-27T00:07:47;99150.53;;;18.35;100.00
53651;BME280;39552;45.776;15.892;2022-09-27T00:10:13;99155.13;;;18.35;100.00
53651;BME280;39552;45.776;15.892;2022-09-27T00:12:40;99156.03;;;18.35;100.00
53651;BME280;39552;45.776;15.892;2022-09-27T00:15:08;99129.31;;;18.45;100.00
53651;BME280;39552;45.776;15.892;2022-09-27T00:17:35;99135.97;;;18.26;100.00
53651;BME280;39552;45.776;15.892;2022-09-27T00:20:04;99129.47;;;18.44;100.00
53651;BME280;39552;45.776;15.892;2022-09-27T00:22:31;99112.88;;;18.37;100.00
53651;BME280;39552;45.776;15.892;2022-09-27T00:24:59;99111.34;;;18.51;100.00
53651;BME280;39552;45.776;15.892;2022-09-27T00:27:26;99104.34;;;18.49;100.00
53651;BME280;39552;45.776;15.892;2022-09-27T00:29:53;99095.09;;;18.41;100.00
53651;BME280;39552;45.776;15.892;2022-09-27T00:32:19;99090.97;;;18.37;100.00
53651;BME280;39552;45.776;15.892;2022-09-27T00:34:46;99089.06;;;18.54;100.00
53651;BME280;39552;45.776;15.892;2022-09-27T00:37:13;99104.34;;;18.57;100.00
53651;BME280;39552;45.776;15.892;2022-09-27T00:39:39;99106.84;;;16.98;100.00
53651;BME280;39552;45.776;15.892;2022-09-27T00:42:10;99113.94;;;17.08;100.00
53651;BME280;39552;45.776;15.892;2022-09-27T00:45:04;99115.97;;;17.06;100.00
53651;BME280;39552;45.776;15.892;2022-09-27T00:47:38;99118.22;;;17.11;100.00
53651;BME280;39552;45.776;15.892;2022-09-27T00:50:12;99090.66;;;17.30;100.00
53651;BME280;39552;45.776;15.892;2022-09-27T00:52:44;99102.19;;;17.51;100.00
53651;BME280;39552;45.776;15.892;2022-09-27T00:55:16;99125.28;;;16.16;100.00
53651;BME280;39552;45.776;15.892;2022-09-27T00:57:46;99123.88;;;15.94;100.00
53651;BME280;39552;45.776;15.892;2022-09-27T01:00:14;99143.13;;;15.92;100.00
53651;BME280;39552;45.776;15.892;2022-09-27T01:02:43;99139.25;;;16.30;100.00
53651;BME280;39552;45.776;15.892;2022-09-27T01:05:13;99135.13;;;16.26;100.00
53651;BME280;39552;45.776;15.892;2022-09-27T01:07:40;99131.66;;;16.06;100.00
53651;BME280;39552;45.776;15.892;2022-09-27T01:10:07;99133.25;;;16.09;100.00
53651;BME280;39552;45.776;15.892;2022-09-27T01:12:44;99126.69;;;16.20;100.00
53651;BME280;39552;45.776;15.892;2022-09-27T01:15:22;99113.28;;;16.26;100.00
53651;BME280;39552;45.776;15.892;2022-09-27T01:18:02;99114.75;;;16.03;100.00
53651;BME280;39552;45.776;15.892;2022-09-27T01:21:00;99113.88;;;16.20;100.00
53651;BME280;39552;45.776;15.892;2022-09-27T01:24:02;99098.13;;;16.50;100.00
53651;BME280;39552;45.776;15.892;2022-09-27T01:26:49;99116.31;;;16.05;100.00
53651;BME280;39552;45.776;15.892;2022-09-27T01:29:27;99119.44;;;16.28;100.00
53651;BME280;39552;45.776;15.892;2022-09-27T01:32:02;99122.56;;;16.51;100.00
53651;BME280;39552;45.776;15.892;2022-09-27T01:34:36;99126.34;;;16.05;100.00
53651;BME280;39552;45.776;15.892;2022-09-27T01:37:09;99141.88;;;16.04;100.00
53651;BME280;39552;45.776;15.892;2022-09-27T01:39:45;99108.13;;;16.41;100.00
53651;BME280;39552;45.776;15.892;2022-09-27T01:42:20;99121.63;;;16.25;100.00
53651;BME280;39552;45.776;15.892;2022-09-27T01:44:53;99115.91;;;16.00;100.00
53651;BME280;39552;45.776;15.892;2022-09-27T01:47:25;99103.44;;;16.34;100.00
53651;BME280;39552;45.776;15.892;2022-09-27T01:49:58;99096.19;;;16.24;100.00
53651;BME280;39552;45.776;15.892;2022-09-27T01:52:31;99110.63;;;16.35;100.00
53651;BME280;39552;45.776;15.892;2022-09-27T01:55:00;99116.94;;;16.97;100.00
53651;BME280;39552;45.776;15.892;2022-09-27T01:57:32;99123.84;;;16.47;100.00
53651;BME280;39552;45.776;15.892;2022-09-27T02:00:03;99132.63;;;16.33;100.00
53651;BME280;39552;45.776;15.892;2022-09-27T02:02:35;99132.13;;;16.02;100.00
53651;BME280;39552;45.776;15.892;2022-09-27T02:05:06;99125.38;;;16.42;100.00
53651;BME280;39552;45.776;15.892;2022-09-27T02:07:40;99121.47;;;16.44;100.00
53651;BME280;39552;45.776;15.892;2022-09-27T02:10:11;99120.03;;;16.22;100.00
53651;BME280;39552;45.776;15.892;2022-09-27T02:12:43;99106.19;;;16.16;100.00
53651;BME280;39552;45.776;15.892;2022-09-27T02:15:13;99102.69;;;16.05;100.00
53651;BME280;39552;45.776;15.892;2022-09-27T02:17:43;99096.44;;;16.13;100.00
53651;BME280;39552;45.776;15.892;2022-09-27T02:20:18;99079.81;;;16.42;100.00
53651;BME280;39552;45.776;15.892;2022-09-27T02:22:54;99063.69;;;17.01;100.00
53651;BME280;39552;45.776;15.892;2022-09-27T02:25:25;99048.78;;;17.30;100.00
53651;BME280;39552;45.776;15.892;2022-09-27T02:27:58;99016.97;;;17.72;100.00
53651;BME280;39552;45.776;15.892;2022-09-27T02:30:26;98995.94;;;17.80;100.00
53651;BME280;39552;45.776;15.892;2022-09-27T02:32:54;98986.75;;;17.90;100.00
53651;BME280;39552;45.776;15.892;2022-09-27T02:35:25;98963.84;;;18.07;100.00
53651;BME280;39552;45.776;15.892;2022-09-27T02:37:52;98950.84;;;17.84;100.00
53651;BME280;39552;45.776;15.892;2022-09-27T02:40:18;98975.44;;;16.75;100.00
53651;BME280;39552;45.776;15.892;2022-09-27T02:42:45;98979.13;;;16.65;100.00
53651;BME280;39552;45.776;15.892;2022-09-27T02:45:13;98998.50;;;17.65;100.00
53651;BME280;39552;45.776;15.892;2022-09-27T02:48:02;98991.72;;;18.27;100.00
53651;BME280;39552;45.776;15.892;2022-09-27T02:50:50;98985.72;;;18.15;100.00
53651;BME280;39552;45.776;15.892;2022-09-27T02:53:34;98973.25;;;18.21;100.00
53651;BME280;39552;45.776;15.892;2022-09-27T02:56:09;98963.47;;;18.43;100.00
53651;BME280;39552;45.776;15.892;2022-09-27T02:58:48;98961.22;;;18.55;100.00
53651;BME280;39552;45.776;15.892;2022-09-27T03:01:22;98963.78;;;18.56;100.00
53651;BME280;39552;45.776;15.892;2022-09-27T03:03:59;98961.25;;;18.30;100.00
53651;BME280;39552;45.776;15.892;2022-09-27T03:06:29;98958.53;;;18.05;100.00
53651;BME280;39552;45.776;15.892;2022-09-27T03:08:57;98951.50;;;18.36;100.00
53651;BME280;39552;45.776;15.892;2022-09-27T03:11:24;98946.03;;;18.36;100.00
53651;BME280;39552;45.776;15.892;2022-09-27T03:13:50;98947.41;;;18.32;100.00
53651;BME280;39552;45.776;15.892;2022-09-27T03:16:34;98948.94;;;18.26;100.00
53651;BME280;39552;45.776;15.892;2022-09-27T03:19:02;98940.69;;;18.42;100.00
53651;BME280;39552;45.776;15.892;2022-09-27T03:21:29;98936.75;;;18.53;100.00
53651;BME280;39552;45.776;15.892;2022-09-27T03:23:55;98939.81;;;18.50;100.00
53651;BME280;39552;45.776;15.892;2022-09-27T03:26:22;98931.25;;;18.53;100.00
53651;BME280;39552;45.776;15.892;2022-09-27T03:28:49;98924.25;;;18.51;100.00
53651;BME280;39552;45.776;15.892;2022-09-27T03:31:16;98906.19;;;18.17;100.00
53651;BME280;39552;45.776;15.892;2022-09-27T03:33:42;98912.44;;;18.50;100.00
53651;BME280;39552;45.776;15.892;2022-09-27T03:36:10;98918.41;;;18.54;100.00
53651;BME280;39552;45.776;15.892;2022-09-27T03:38:37;98919.13;;;18.47;100.00
53651;BME280;39552;45.776;15.892;2022-09-27T03:41:04;98922.41;;;18.43;100.00
53651;BME280;39552;45.776;15.892;2022-09-27T03:43:30;98925.34;;;18.33;100.00
53651;BME280;39552;45.776;15.892;2022-09-27T03:45:57;98922.22;;;18.36;100.00
53651;BME280;39552;45.776;15.892;2022-09-27T03:48:23;98914.19;;;18.35;100.00
53651;BME280;39552;45.776;15.892;2022-09-27T03:50:53;98892.63;;;18.40;100.00
53651;BME280;39552;45.776;15.892;2022-09-27T03:53:21;98888.53;;;18.19;100.00
53651;BME280;39552;45.776;15.892;2022-09-27T03:55:48;98893.50;;;18.24;100.00
53651;BME280;39552;45.776;15.892;2022-09-27T03:58:15;98888.06;;;17.83;100.00
53651;BME280;39552;45.776;15.892;2022-09-27T04:00:41;98912.50;;;18.17;100.00
53651;BME280;39552;45.776;15.892;2022-09-27T04:03:08;98899.81;;;18.33;100.00
53651;BME280;39552;45.776;15.892;2022-09-27T04:05:35;98876.22;;;18.32;100.00
53651;BME280;39552;45.776;15.892;2022-09-27T04:08:01;98870.56;;;18.33;100.00
53651;BME280;39552;45.776;15.892;2022-09-27T04:10:29;98886.78;;;18.35;100.00
53651;BME280;39552;45.776;15.892;2022-09-27T04:12:56;98886.81;;;18.26;100.00
53651;BME280;39552;45.776;15.892;2022-09-27T04:15:22;98854.22;;;17.84;100.00
53651;BME280;39552;45.776;15.892;2022-09-27T04:17:49;98879.00;;;18.07;100.00
53651;BME280;39552;45.776;15.892;2022-09-27T04:20:16;98879.66;;;18.25;100.00
53651;BME280;39552;45.776;15.892;2022-09-27T04:22:43;98884.13;;;18.10;100.00
53651;BME280;39552;45.776;15.892;2022-09-27T04:25:10;98882.78;;;18.06;100.00
53651;BME280;39552;45.776;15.892;2022-09-27T04:27:39;98874.53;;;18.14;100.00
53651;BME280;39552;45.776;15.892;2022-09-27T04:30:10;98877.63;;;17.86;100.00
53651;BME280;39552;45.776;15.892;2022-09-27T04:32:40;98869.25;;;18.04;100.00
53651;BME280;39552;45.776;15.892;2022-09-27T04:35:07;98849.94;;;17.81;100.00
53651;BME280;39552;45.776;15.892;2022-09-27T04:37:34;98860.72;;;17.83;100.00
53651;BME280;39552;45.776;15.892;2022-09-27T04:40:01;98873.19;;;18.10;100.00
53651;BME280;39552;45.776;15.892;2022-09-27T04:42:28;98873.50;;;18.15;100.00
53651;BME280;39552;45.776;15.892;2022-09-27T04:44:56;98891.56;;;16.06;100.00
53651;BME280;39552;45.776;15.892;2022-09-27T04:47:22;98913.34;;;15.62;100.00
53651;BME280;39552;45.776;15.892;2022-09-27T04:49:49;98914.94;;;15.65;100.00
53651;BME280;39552;45.776;15.892;2022-09-27T04:52:15;98905.25;;;15.52;100.00
53651;BME280;39552;45.776;15.892;2022-09-27T04:54:42;98906.56;;;15.66;100.00
53651;BME280;39552;45.776;15.892;2022-09-27T04:57:09;98908.84;;;15.89;100.00
53651;BME280;39552;45.776;15.892;2022-09-27T04:59:35;98898.81;;;16.42;100.00
53651;BME280;39552;45.776;15.892;2022-09-27T05:02:03;98906.34;;;16.48;100.00
53651;BME280;39552;45.776;15.892;2022-09-27T05:04:30;98875.41;;;17.41;100.00
53651;BME280;39552;45.776;15.892;2022-09-27T05:06:56;98850.78;;;17.57;100.00
53651;BME280;39552;45.776;15.892;2022-09-27T05:09:23;98851.97;;;17.38;100.00
53651;BME280;39552;45.776;15.892;2022-09-27T05:11:50;98846.53;;;17.55;100.00
53651;BME280;39552;45.776;15.892;2022-09-27T05:14:16;98829.25;;;17.38;100.00
53651;BME280;39552;45.776;15.892;2022-09-27T05:16:43;98811.50;;;17.34;100.00
53651;BME280;39552;45.776;15.892;2022-09-27T05:19:11;98816.09;;;17.49;100.00
53651;BME280;39552;45.776;15.892;2022-09-27T05:21:40;98830.28;;;17.45;100.00
53651;BME280;39552;45.776;15.892;2022-09-27T05:24:06;98833.88;;;17.54;100.00
53651;BME280;39552;45.776;15.892;2022-09-27T05:26:33;98834.41;;;17.41;100.00
53651;BME280;39552;45.776;15.892;2022-09-27T05:28:59;98831.66;;;17.65;100.00
53651;BME280;39552;45.776;15.892;2022-09-27T05:31:26;98845.84;;;17.61;100.00
53651;BME280;39552;45.776;15.892;2022-09-27T05:33:53;98825.66;;;17.70;100.00
53651;BME280;39552;45.776;15.892;2022-09-27T05:36:21;98835.56;;;17.71;100.00
53651;BME280;39552;45.776;15.892;2022-09-27T05:38:47;98827.72;;;17.84;100.00
53651;BME280;39552;45.776;15.892;2022-09-27T05:41:14;98819.19;;;17.55;100.00
53651;BME280;39552;45.776;15.892;2022-09-27T05:43:41;98835.75;;;17.69;100.00
53651;BME280;39552;45.776;15.892;2022-09-27T05:46:07;98836.28;;;17.48;100.00
53651;BME280;39552;45.776;15.892;2022-09-27T05:48:34;98843.97;;;17.45;100.00
53651;BME280;39552;45.776;15.892;2022-09-27T05:51:01;98840.72;;;17.58;100.00
53651;BME280;39552;45.776;15.892;2022-09-27T05:53:29;98838.47;;;18.02;100.00
53651;BME280;39552;45.776;15.892;2022-09-27T05:56:00;98830.44;;;18.01;100.00
53651;BME280;39552;45.776;15.892;2022-09-27T05:58:26;98831.47;;;17.92;100.00
53651;BME280;39552;45.776;15.892;2022-09-27T06:00:53;98843.06;;;18.18;100.00
53651;BME280;39552;45.776;15.892;2022-09-27T06:03:20;98844.47;;;17.90;100.00
53651;BME280;39552;45.776;15.892;2022-09-27T06:05:46;98848.22;;;18.05;100.00
53651;BME280;39552;45.776;15.892;2022-09-27T06:08:16;98843.72;;;18.20;100.00
53651;BME280;39552;45.776;15.892;2022-09-27T06:10:47;98841.47;;;18.32;100.00
53651;BME280;39552;45.776;15.892;2022-09-27T06:13:14;98821.59;;;18.38;100.00
53651;BME280;39552;45.776;15.892;2022-09-27T06:15:43;98819.28;;;18.58;100.00
53651;BME280;39552;45.776;15.892;2022-09-27T06:18:11;98820.88;;;18.44;100.00
53651;BME280;39552;45.776;15.892;2022-09-27T06:20:39;98820.72;;;18.77;100.00
53651;BME280;39552;45.776;15.892;2022-09-27T06:23:07;98820.91;;;18.84;100.00
53651;BME280;39552;45.776;15.892;2022-09-27T06:25:34;98815.72;;;18.50;100.00
53651;BME280;39552;45.776;15.892;2022-09-27T06:28:03;98817.16;;;18.29;100.00
53651;BME280;39552;45.776;15.892;2022-09-27T06:30:30;98817.97;;;18.46;100.00
53651;BME280;39552;45.776;15.892;2022-09-27T06:32:57;98815.13;;;18.31;100.00
53651;BME280;39552;45.776;15.892;2022-09-27T06:35:28;98815.84;;;18.64;100.00
53651;BME280;39552;45.776;15.892;2022-09-27T06:37:55;98829.66;;;18.71;100.00
53651;BME280;39552;45.776;15.892;2022-09-27T06:40:22;98828.63;;;18.72;100.00
53651;BME280;39552;45.776;15.892;2022-09-27T06:42:49;98818.78;;;18.55;100.00
53651;BME280;39552;45.776;15.892;2022-09-27T06:45:17;98828.63;;;18.80;100.00
53651;BME280;39552;45.776;15.892;2022-09-27T06:47:44;98830.13;;;18.83;100.00
53651;BME280;39552;45.776;15.892;2022-09-27T06:50:10;98821.53;;;18.55;100.00
53651;BME280;39552;45.776;15.892;2022-09-27T06:52:37;98825.06;;;18.72;100.00
53651;BME280;39552;45.776;15.892;2022-09-27T06:55:11;98824.19;;;19.02;100.00
53651;BME280;39552;45.776;15.892;2022-09-27T06:57:38;98818.28;;;19.22;100.00
53651;BME280;39552;45.776;15.892;2022-09-27T07:00:05;98820.78;;;19.00;100.00
53651;BME280;39552;45.776;15.892;2022-09-27T07:02:33;98810.94;;;19.14;100.00
53651;BME280;39552;45.776;15.892;2022-09-27T07:05:00;98811.72;;;18.69;100.00
53651;BME280;39552;45.776;15.892;2022-09-27T07:07:27;98806.47;;;18.90;100.00
53651;BME280;39552;45.776;15.892;2022-09-27T07:09:56;98805.47;;;19.14;100.00
53651;BME280;39552;45.776;15.892;2022-09-27T07:12:22;98808.31;;;18.98;100.00
53651;BME280;39552;45.776;15.892;2022-09-27T07:14:49;98792.97;;;19.12;100.00
53651;BME280;39552;45.776;15.892;2022-09-27T07:17:16;98807.41;;;19.05;100.00
53651;BME280;39552;45.776;15.892;2022-09-27T07:19:44;98816.19;;;19.01;100.00
53651;BME280;39552;45.776;15.892;2022-09-27T07:22:11;98823.13;;;19.12;100.00
53651;BME280;39552;45.776;15.892;2022-09-27T07:24:38;98821.22;;;18.89;100.00
53651;BME280;39552;45.776;15.892;2022-09-27T07:27:05;98829.38;;;18.97;100.00
53651;BME280;39552;45.776;15.892;2022-09-27T07:29:31;98831.28;;;18.97;100.00
53651;BME280;39552;45.776;15.892;2022-09-27T07:31:58;98824.09;;;19.19;100.00
53651;BME280;39552;45.776;15.892;2022-09-27T07:34:25;98823.00;;;19.51;100.00
53651;BME280;39552;45.776;15.892;2022-09-27T07:36:57;98824.63;;;19.60;100.00
53651;BME280;39552;45.776;15.892;2022-09-27T07:39:24;98830.50;;;19.80;100.00
53651;BME280;39552;45.776;15.892;2022-09-27T07:41:51;98825.50;;;19.61;100.00
53651;BME280;39552;45.776;15.892;2022-09-27T07:44:17;98820.00;;;19.84;100.00
53651;BME280;39552;45.776;15.892;2022-09-27T07:46:44;98824.69;;;19.75;100.00
53651;BME280;39552;45.776;15.892;2022-09-27T07:49:11;98812.81;;;19.98;100.00
53651;BME280;39552;45.776;15.892;2022-09-27T07:51:37;98802.47;;;19.85;100.00
53651;BME280;39552;45.776;15.892;2022-09-27T07:54:06;98812.72;;;20.06;100.00
53651;BME280;39552;45.776;15.892;2022-09-27T07:56:34;98820.13;;;20.20;100.00
53651;BME280;39552;45.776;15.892;2022-09-27T07:59:01;98815.84;;;20.48;100.00
53651;BME280;39552;45.776;15.892;2022-09-27T08:01:28;98830.41;;;19.89;100.00
53651;BME280;39552;45.776;15.892;2022-09-27T08:03:54;98826.28;;;20.22;100.00
53651;BME280;39552;45.776;15.892;2022-09-27T08:06:21;98819.06;;;20.51;100.00
53651;BME280;39552;45.776;15.892;2022-09-27T08:08:48;98810.06;;;21.09;100.00
53651;BME280;39552;45.776;15.892;2022-09-27T08:11:16;98801.44;;;21.12;100.00
53651;BME280;39552;45.776;15.892;2022-09-27T08:13:44;98804.41;;;20.95;100.00
53651;BME280;39552;45.776;15.892;2022-09-27T08:16:11;98790.19;;;20.55;100.00
53651;BME280;39552;45.776;15.892;2022-09-27T08:18:38;98795.75;;;20.47;100.00
53651;BME280;39552;45.776;15.892;2022-09-27T08:21:05;98805.91;;;20.47;100.00
53651;BME280;39552;45.776;15.892;2022-09-27T08:23:32;98791.03;;;20.71;100.00
53651;BME280;39552;45.776;15.892;2022-09-27T08:25:58;98802.31;;;20.61;100.00
53651;BME280;39552;45.776;15.892;2022-09-27T08:28:27;98802.41;;;20.68;100.00
53651;BME280;39552;45.776;15.892;2022-09-27T08:30:56;98806.44;;;20.57;100.00
53651;BME280;39552;45.776;15.892;2022-09-27T08:33:23;98805.69;;;20.78;100.00
53651;BME280;39552;45.776;15.892;2022-09-27T08:35:58;98769.94;;;20.27;100.00
53651;BME280;39552;45.776;15.892;2022-09-27T08:38:24;98811.97;;;20.27;100.00
53651;BME280;39552;45.776;15.892;2022-09-27T08:40:55;98799.00;;;20.66;100.00
53651;BME280;39552;45.776;15.892;2022-09-27T08:43:33;98797.84;;;21.11;100.00
53651;BME280;39552;45.776;15.892;2022-09-27T08:46:18;98797.13;;;20.88;100.00
53651;BME280;39552;45.776;15.892;2022-09-27T08:48:53;98782.91;;;20.33;100.00
53651;BME280;39552;45.776;15.892;2022-09-27T08:51:29;98791.69;;;20.43;100.00
53651;BME280;39552;45.776;15.892;2022-09-27T08:54:00;98795.50;;;20.42;100.00
53651;BME280;39552;45.776;15.892;2022-09-27T08:56:30;98787.88;;;20.59;100.00
53651;BME280;39552;45.776;15.892;2022-09-27T08:59:03;98776.75;;;20.31;100.00
53651;BME280;39552;45.776;15.892;2022-09-27T09:01:34;98764.06;;;20.15;100.00
53651;BME280;39552;45.776;15.892;2022-09-27T09:04:02;98758.47;;;20.08;100.00
53651;BME280;39552;45.776;15.892;2022-09-27T09:06:35;98762.34;;;20.14;100.00
53651;BME280;39552;45.776;15.892;2022-09-27T09:09:13;98770.38;;;20.45;100.00
53651;BME280;39552;45.776;15.892;2022-09-27T09:11:50;98753.69;;;20.47;100.00
53651;BME280;39552;45.776;15.892;2022-09-27T09:14:41;98777.00;;;20.51;100.00
53651;BME280;39552;45.776;15.892;2022-09-27T09:17:19;98762.06;;;20.09;100.00
53651;BME280;39552;45.776;15.892;2022-09-27T09:20:00;98771.06;;;20.02;100.00
53651;BME280;39552;45.776;15.892;2022-09-27T09:22:39;98772.66;;;20.41;100.00
53651;BME280;39552;45.776;15.892;2022-09-27T09:25:25;98754.47;;;20.40;100.00
53651;BME280;39552;45.776;15.892;2022-09-27T09:28:04;98773.53;;;20.42;100.00
53651;BME280;39552;45.776;15.892;2022-09-27T09:30:44;98781.66;;;20.50;100.00
53651;BME280;39552;45.776;15.892;2022-09-27T09:33:22;98760.03;;;20.47;100.00
53651;BME280;39552;45.776;15.892;2022-09-27T09:35:54;98769.38;;;20.83;100.00
53651;BME280;39552;45.776;15.892;2022-09-27T09:38:26;98765.16;;;20.65;100.00
53651;BME280;39552;45.776;15.892;2022-09-27T09:41:03;98718.34;;;20.43;100.00
53651;BME280;39552;45.776;15.892;2022-09-27T09:43:38;98739.06;;;20.76;100.00
53651;BME280;39552;45.776;15.892;2022-09-27T09:46:13;98764.38;;;21.08;100.00
53651;BME280;39552;45.776;15.892;2022-09-27T09:48:46;98737.53;;;21.10;100.00
53651;BME280;39552;45.776;15.892;2022-09-27T09:51:26;98709.69;;;20.98;100.00
53651;BME280;39552;45.776;15.892;2022-09-27T09:53:58;98741.81;;;20.97;100.00
53651;BME280;39552;45.776;15.892;2022-09-27T09:56:30;98730.44;;;21.00;100.00
53651;BME280;39552;45.776;15.892;2022-09-27T09:59:00;98718.47;;;20.87;100.00
53651;BME280;39552;45.776;15.892;2022-09-27T10:01:37;98693.06;;;20.85;100.00
53651;BME280;39552;45.776;15.892;2022-09-27T10:04:07;98705.75;;;21.07;100.00
53651;BME280;39552;45.776;15.892;2022-09-27T10:06:38;98746.13;;;18.98;100.00
53651;BME280;39552;45.776;15.892;2022-09-27T10:09:08;98745.13;;;19.75;100.00
53651;BME280;39552;45.776;15.892;2022-09-27T10:11:39;98703.78;;;20.43;100.00
53651;BME280;39552;45.776;15.892;2022-09-27T10:14:24;98726.94;;;20.70;100.00
53651;BME280;39552;45.776;15.892;2022-09-27T10:16:57;98714.56;;;20.96;100.00
53651;BME280;39552;45.776;15.892;2022-09-27T10:19:27;98706.66;;;20.35;100.00
53651;BME280;39552;45.776;15.892;2022-09-27T10:22:00;98713.34;;;20.62;100.00
53651;BME280;39552;45.776;15.892;2022-09-27T10:24:27;98718.47;;;20.87;100.00
53651;BME280;39552;45.776;15.892;2022-09-27T10:26:57;98703.34;;;20.97;100.00
53651;BME280;39552;45.776;15.892;2022-09-27T10:29:29;98716.13;;;21.55;100.00
53651;BME280;39552;45.776;15.892;2022-09-27T10:32:20;98710.00;;;21.88;100.00
53651;BME280;39552;45.776;15.892;2022-09-27T10:34:47;98699.91;;;22.02;100.00
53651;BME280;39552;45.776;15.892;2022-09-27T10:37:16;98694.31;;;21.88;100.00
53651;BME280;39552;45.776;15.892;2022-09-27T10:39:44;98693.97;;;22.40;100.00
53651;BME280;39552;45.776;15.892;2022-09-27T10:42:22;98705.66;;;22.48;100.00
53651;BME280;39552;45.776;15.892;2022-09-27T10:44:56;98704.69;;;21.86;100.00
53651;BME280;39552;45.776;15.892;2022-09-27T10:47:27;98708.28;;;21.52;100.00
53651;BME280;39552;45.776;15.892;2022-09-27T10:50:03;98710.88;;;21.60;100.00
53651;BME280;39552;45.776;15.892;2022-09-27T10:52:30;98703.00;;;21.07;100.00
53651;BME280;39552;45.776;15.892;2022-09-27T10:54:59;98687.16;;;20.88;100.00
53651;BME280;39552;45.776;15.892;2022-09-27T10:57:28;98711.06;;;21.09;100.00
53651;BME280;39552;45.776;15.892;2022-09-27T11:02:27;98704.03;;;21.28;100.00
53651;BME280;39552;45.776;15.892;2022-09-27T11:05:09;98701.72;;;21.81;100.00
53651;BME280;39552;45.776;15.892;2022-09-27T11:07:48;98690.09;;;21.86;100.00
53651;BME280;39552;45.776;15.892;2022-09-27T11:10:24;98683.81;;;22.05;100.00
53651;BME280;39552;45.776;15.892;2022-09-27T11:13:09;98663.13;;;21.74;100.00
53651;BME280;39552;45.776;15.892;2022-09-27T11:15:49;98657.31;;;21.56;100.00
53651;BME280;39552;45.776;15.892;2022-09-27T11:18:25;98662.28;;;21.46;100.00
53651;BME280;39552;45.776;15.892;2022-09-27T11:21:02;98662.38;;;21.59;100.00
53651;BME280;39552;45.776;15.892;2022-09-27T11:23:50;98682.50;;;22.36;100.00
53651;BME280;39552;45.776;15.892;2022-09-27T11:26:43;98618.25;;;22.29;98.92
53651;BME280;39552;45.776;15.892;2022-09-27T11:29:22;98671.69;;;22.28;100.00
53651;BME280;39552;45.776;15.892;2022-09-27T11:32:02;98658.72;;;23.03;100.00
53651;BME280;39552;45.776;15.892;2022-09-27T11:34:51;98649.97;;;22.86;99.14
53651;BME280;39552;45.776;15.892;2022-09-27T11:37:29;98652.72;;;22.80;100.00
53651;BME280;39552;45.776;15.892;2022-09-27T11:40:04;98646.09;;;22.47;100.00
53651;BME280;39552;45.776;15.892;2022-09-27T11:42:57;98651.88;;;22.72;100.00
53651;BME280;39552;45.776;15.892;2022-09-27T11:45:43;98650.56;;;22.62;100.00
53651;BME280;39552;45.776;15.892;2022-09-27T11:48:48;98650.72;;;22.40;100.00
53651;BME280;39552;45.776;15.892;2022-09-27T11:51:35;98653.28;;;22.48;100.00
53651;BME280;39552;45.776;15.892;2022-09-27T11:54:26;98644.75;;;21.82;100.00
53651;BME280;39552;45.776;15.892;2022-09-27T11:57:00;98638.66;;;21.93;100.00
53651;BME280;39552;45.776;15.892;2022-09-27T11:59:45;98639.25;;;22.30;100.00
53651;BME280;39552;45.776;15.892;2022-09-27T12:02:32;98636.31;;;22.38;100.00
53651;BME280;39552;45.776;15.892;2022-09-27T12:05:22;98627.28;;;22.91;100.00
53651;BME280;39552;45.776;15.892;2022-09-27T12:08:04;98624.56;;;23.11;100.00
53651;BME280;39552;45.776;15.892;2022-09-27T12:10:34;98632.56;;;22.79;100.00
53651;BME280;39552;45.776;15.892;2022-09-27T12:13:04;98633.44;;;23.06;100.00
53651;BME280;39552;45.776;15.892;2022-09-27T12:15:35;98631.69;;;22.58;100.00
53651;BME280;39552;45.776;15.892;2022-09-27T12:18:13;98635.31;;;22.59;100.00
53651;BME280;39552;45.776;15.892;2022-09-27T12:20:46;98627.31;;;23.04;100.00
53651;BME280;39552;45.776;15.892;2022-09-27T12:23:19;98618.38;;;23.29;100.00
53651;BME280;39552;45.776;15.892;2022-09-27T12:25:49;98598.19;;;23.42;99.46
53651;BME280;39552;45.776;15.892;2022-09-27T12:28:20;98607.28;;;23.69;100.00
53651;BME280;39552;45.776;15.892;2022-09-27T12:30:57;98591.09;;;23.86;98.90
53651;BME280;39552;45.776;15.892;2022-09-27T12:33:50;98589.19;;;23.80;99.49
53651;BME280;39552;45.776;15.892;2022-09-27T12:36:24;98592.25;;;24.17;98.26
53651;BME280;39552;45.776;15.892;2022-09-27T12:39:01;98589.38;;;23.85;95.81
53651;BME280;39552;45.776;15.892;2022-09-27T12:41:38;98588.25;;;23.01;99.95
53651;BME280;39552;45.776;15.892;2022-09-27T12:44:08;98596.47;;;24.12;92.37
53651;BME280;39552;45.776;15.892;2022-09-27T12:46:45;98589.09;;;24.51;89.23
53651;BME280;39552;45.776;15.892;2022-09-27T12:49:20;98576.03;;;24.59;90.55
53651;BME280;39552;45.776;15.892;2022-09-27T12:52:02;98594.88;;;24.37;87.47
53651;BME280;39552;45.776;15.892;2022-09-27T12:54:45;98611.28;;;24.31;87.91
53651;BME280;39552;45.776;15.892;2022-09-27T12:57:26;98613.31;;;24.04;88.44
53651;BME280;39552;45.776;15.892;2022-09-27T13:00:05;98612.31;;;24.37;86.09
53651;BME280;39552;45.776;15.892;2022-09-27T13:02:54;98637.50;;;23.04;86.68
53651;BME280;39552;45.776;15.892;2022-09-27T13:06:07;98672.88;;;20.19;93.08